sensor_id;sensor_type;location;lat;lon;timestamp;P1;durP1;ratioP1;P2;durP2;ratioP2
38240;SDS011;24037;49.536;8.500;2022-11-09T00:00:38;5.32;;;2.72;;
38240;SDS011;24037;49.536;8.500;2022-11-09T00:03:04;5.18;;;3.05;;
38240;SDS011;24037;49.536;8.500;2022-11-09T00:05:31;7.07;;;3.60;;
38240;SDS011;24037;49.536;8.500;2022-11-09T00:07:58;8.32;;;3.88;;
38240;SDS011;24037;49.536;8.500;2022-11-09T00:10:24;4.72;;;3.25;;
38240;SDS011;24037;49.536;8.500;2022-11-09T00:12:50;7.28;;;3.03;;
38240;SDS011;24037;49.536;8.500;2022-11-09T00:15:16;7.38;;;3.30;;
38240;SDS011;24037;49.536;8.500;2022-11-09T00:17:42;10.27;;;3.88;;
38240;SDS011;24037;49.536;8.500;2022-11-09T00:20:09;6.00;;;3.70;;
38240;SDS011;24037;49.536;8.500;2022-11-09T00:22:37;8.65;;;4.53;;
38240;SDS011;24037;49.536;8.500;2022-11-09T00:25:03;8.35;;;5.00;;
38240;SDS011;24037;49.536;8.500;2022-11-09T00:27:30;9.80;;;6.18;;
38240;SDS011;24037;49.536;8.500;2022-11-09T00:29:56;10.15;;;4.97;;
38240;SDS011;24037;49.536;8.500;2022-11-09T00:32:22;9.88;;;5.47;;
38240;SDS011;24037;49.536;8.500;2022-11-09T00:34:48;7.70;;;4.93;;
38240;SDS011;24037;49.536;8.500;2022-11-09T00:37:15;8.20;;;5.53;;
38240;SDS011;24037;49.536;8.500;2022-11-09T00:39:41;13.68;;;7.57;;
38240;SDS011;24037;49.536;8.500;2022-11-09T00:42:08;11.25;;;8.15;;
38240;SDS011;24037;49.536;8.500;2022-11-09T00:44:34;9.18;;;6.72;;
38240;SDS011;24037;49.536;8.500;2022-11-09T00:47:00;8.77;;;6.50;;
38240;SDS011;24037;49.536;8.500;2022-11-09T00:49:26;9.90;;;6.25;;
38240;SDS011;24037;49.536;8.500;2022-11-09T00:51:53;10.50;;;6.13;;
38240;SDS011;24037;49.536;8.500;2022-11-09T00:54:19;9.95;;;6.47;;
38240;SDS011;24037;49.536;8.500;2022-11-09T00:56:45;9.68;;;6.07;;
38240;SDS011;24037;49.536;8.500;2022-11-09T00:59:12;10.45;;;5.25;;
38240;SDS011;24037;49.536;8.500;2022-11-09T01:01:38;8.88;;;5.18;;
38240;SDS011;24037;49.536;8.500;2022-11-09T01:04:04;6.25;;;4.70;;
38240;SDS011;24037;49.536;8.500;2022-11-09T01:06:32;8.10;;;4.75;;
38240;SDS011;24037;49.536;8.500;2022-11-09T01:08:58;8.27;;;4.70;;
38240;SDS011;24037;49.536;8.500;2022-11-09T01:11:24;6.05;;;4.25;;
38240;SDS011;24037;49.536;8.500;2022-11-09T01:13:51;7.63;;;4.65;;
38240;SDS011;24037;49.536;8.500;2022-11-09T01:16:20;5.97;;;4.35;;
38240;SDS011;24037;49.536;8.500;2022-11-09T01:18:50;8.43;;;5.28;;
38240;SDS011;24037;49.536;8.500;2022-11-09T01:21:17;8.85;;;4.78;;
38240;SDS011;24037;49.536;8.500;2022-11-09T01:23:43;9.05;;;4.93;;
38240;SDS011;24037;49.536;8.500;2022-11-09T01:26:10;7.55;;;4.72;;
38240;SDS011;24037;49.536;8.500;2022-11-09T01:28:38;10.00;;;6.03;;
38240;SDS011;24037;49.536;8.500;2022-11-09T01:31:10;8.65;;;5.72;;
38240;SDS011;24037;49.536;8.500;2022-11-09T01:33:41;8.48;;;4.88;;
38240;SDS011;24037;49.536;8.500;2022-11-09T01:36:09;10.70;;;5.88;;
38240;SDS011;24037;49.536;8.500;2022-11-09T01:38:37;7.25;;;4.95;;
38240;SDS011;24037;49.536;8.500;2022-11-09T01:41:04;7.80;;;5.65;;
38240;SDS011;24037;49.536;8.500;2022-11-09T01:43:33;9.55;;;5.55;;
38240;SDS011;24037;49.536;8.500;2022-11-09T01:46:04;8.38;;;5.97;;
38240;SDS011;24037;49.536;8.500;2022-11-09T01:48:52;11.13;;;5.53;;
38240;SDS011;24037;49.536;8.500;2022-11-09T01:51:37;8.60;;;5.45;;
38240;SDS011;24037;49.536;8.500;2022-11-09T01:54:11;9.20;;;6.32;;
38240;SDS011;24037;49.536;8.500;2022-11-09T01:57:05;12.15;;;6.78;;
38240;SDS011;24037;49.536;8.500;2022-11-09T01:59:39;16.05;;;9.35;;
38240;SDS011;24037;49.536;8.500;2022-11-09T02:02:09;13.43;;;9.95;;
38240;SDS011;24037;49.536;8.500;2022-11-09T02:04:40;21.30;;;10.25;;
38240;SDS011;24037;49.536;8.500;2022-11-09T02:07:11;17.00;;;10.50;;
38240;SDS011;24037;49.536;8.500;2022-11-09T02:09:40;15.40;;;10.27;;
38240;SDS011;24037;49.536;8.500;2022-11-09T02:12:12;14.45;;;9.75;;
38240;SDS011;24037;49.536;8.500;2022-11-09T02:14:39;18.33;;;11.00;;
38240;SDS011;24037;49.536;8.500;2022-11-09T02:17:06;12.95;;;9.15;;
38240;SDS011;24037;49.536;8.500;2022-11-09T02:19:33;17.35;;;10.88;;
38240;SDS011;24037;49.536;8.500;2022-11-09T02:21:59;15.68;;;10.60;;
38240;SDS011;24037;49.536;8.500;2022-11-09T02:24:26;17.45;;;10.73;;
38240;SDS011;24037;49.536;8.500;2022-11-09T02:26:52;15.93;;;10.63;;
38240;SDS011;24037;49.536;8.500;2022-11-09T02:29:20;14.70;;;9.48;;
38240;SDS011;24037;49.536;8.500;2022-11-09T02:34:19;16.25;;;10.25;;
38240;SDS011;24037;49.536;8.500;2022-11-09T02:36:46;15.93;;;9.43;;
38240;SDS011;24037;49.536;8.500;2022-11-09T02:39:20;14.52;;;10.68;;
38240;SDS011;24037;49.536;8.500;2022-11-09T02:44:41;13.98;;;9.13;;
38240;SDS011;24037;49.536;8.500;2022-11-09T02:47:10;15.50;;;9.23;;
38240;SDS011;24037;49.536;8.500;2022-11-09T02:49:37;19.85;;;10.55;;
38240;SDS011;24037;49.536;8.500;2022-11-09T02:52:03;14.40;;;9.25;;
38240;SDS011;24037;49.536;8.500;2022-11-09T02:54:30;16.55;;;9.48;;
38240;SDS011;24037;49.536;8.500;2022-11-09T02:56:57;15.43;;;9.15;;
38240;SDS011;24037;49.536;8.500;2022-11-09T02:59:24;14.63;;;9.38;;
38240;SDS011;24037;49.536;8.500;2022-11-09T03:01:51;18.00;;;9.68;;
38240;SDS011;24037;49.536;8.500;2022-11-09T03:04:17;14.80;;;9.35;;
38240;SDS011;24037;49.536;8.500;2022-11-09T03:06:44;14.70;;;9.75;;
38240;SDS011;24037;49.536;8.500;2022-11-09T03:09:14;17.15;;;9.82;;
38240;SDS011;24037;49.536;8.500;2022-11-09T03:11:41;17.38;;;9.63;;
38240;SDS011;24037;49.536;8.500;2022-11-09T03:14:11;15.63;;;9.93;;
38240;SDS011;24037;49.536;8.500;2022-11-09T03:16:42;14.65;;;9.45;;
38240;SDS011;24037;49.536;8.500;2022-11-09T03:19:09;14.77;;;9.73;;
38240;SDS011;24037;49.536;8.500;2022-11-09T03:21:35;14.60;;;9.68;;
38240;SDS011;24037;49.536;8.500;2022-11-09T03:24:01;18.48;;;10.85;;
38240;SDS011;24037;49.536;8.500;2022-11-09T03:26:28;17.45;;;10.55;;
38240;SDS011;24037;49.536;8.500;2022-11-09T03:28:55;15.23;;;11.43;;
38240;SDS011;24037;49.536;8.500;2022-11-09T03:31:21;18.55;;;11.23;;
38240;SDS011;24037;49.536;8.500;2022-11-09T03:33:49;18.27;;;10.75;;
38240;SDS011;24037;49.536;8.500;2022-11-09T03:36:15;14.55;;;11.35;;
38240;SDS011;24037;49.536;8.500;2022-11-09T03:38:41;16.25;;;10.45;;
38240;SDS011;24037;49.536;8.500;2022-11-09T03:41:07;17.98;;;11.30;;
38240;SDS011;24037;49.536;8.500;2022-11-09T03:43:35;18.27;;;11.52;;
38240;SDS011;24037;49.536;8.500;2022-11-09T03:46:01;15.57;;;10.43;;
38240;SDS011;24037;49.536;8.500;2022-11-09T03:48:27;18.52;;;11.73;;
38240;SDS011;24037;49.536;8.500;2022-11-09T03:50:54;21.70;;;13.73;;
38240;SDS011;24037;49.536;8.500;2022-11-09T03:53:20;17.58;;;11.75;;
38240;SDS011;24037;49.536;8.500;2022-11-09T03:55:46;18.25;;;11.52;;
38240;SDS011;24037;49.536;8.500;2022-11-09T03:58:13;16.70;;;10.25;;
38240;SDS011;24037;49.536;8.500;2022-11-09T04:00:39;18.83;;;11.02;;
38240;SDS011;24037;49.536;8.500;2022-11-09T04:03:05;17.63;;;12.15;;
38240;SDS011;24037;49.536;8.500;2022-11-09T04:05:31;16.70;;;12.02;;
38240;SDS011;24037;49.536;8.500;2022-11-09T04:07:57;21.52;;;11.88;;
38240;SDS011;24037;49.536;8.500;2022-11-09T04:10:25;19.90;;;13.27;;
38240;SDS011;24037;49.536;8.500;2022-11-09T04:12:52;18.23;;;12.38;;
38240;SDS011;24037;49.536;8.500;2022-11-09T04:15:18;22.20;;;13.95;;
38240;SDS011;24037;49.536;8.500;2022-11-09T04:17:52;20.55;;;13.00;;
38240;SDS011;24037;49.536;8.500;2022-11-09T04:20:26;19.67;;;13.35;;
38240;SDS011;24037;49.536;8.500;2022-11-09T04:22:57;18.90;;;13.00;;
38240;SDS011;24037;49.536;8.500;2022-11-09T04:25:24;24.92;;;14.35;;
38240;SDS011;24037;49.536;8.500;2022-11-09T04:27:55;22.88;;;13.88;;
38240;SDS011;24037;49.536;8.500;2022-11-09T04:30:22;21.27;;;13.88;;
38240;SDS011;24037;49.536;8.500;2022-11-09T04:32:53;23.85;;;13.52;;
38240;SDS011;24037;49.536;8.500;2022-11-09T04:35:20;24.40;;;15.23;;
38240;SDS011;24037;49.536;8.500;2022-11-09T04:37:56;23.67;;;14.32;;
38240;SDS011;24037;49.536;8.500;2022-11-09T04:40:24;28.20;;;15.90;;
38240;SDS011;24037;49.536;8.500;2022-11-09T04:42:51;28.17;;;16.48;;
38240;SDS011;24037;49.536;8.500;2022-11-09T04:45:18;26.73;;;16.30;;
38240;SDS011;24037;49.536;8.500;2022-11-09T04:47:45;25.67;;;17.05;;
38240;SDS011;24037;49.536;8.500;2022-11-09T04:50:12;27.58;;;16.73;;
38240;SDS011;24037;49.536;8.500;2022-11-09T04:52:38;28.25;;;16.75;;
38240;SDS011;24037;49.536;8.500;2022-11-09T04:55:05;28.45;;;16.83;;
38240;SDS011;24037;49.536;8.500;2022-11-09T04:57:32;29.00;;;16.85;;
38240;SDS011;24037;49.536;8.500;2022-11-09T04:59:58;24.88;;;15.95;;
38240;SDS011;24037;49.536;8.500;2022-11-09T05:02:24;29.48;;;18.17;;
38240;SDS011;24037;49.536;8.500;2022-11-09T05:04:50;29.52;;;17.10;;
38240;SDS011;24037;49.536;8.500;2022-11-09T05:07:16;31.23;;;16.98;;
38240;SDS011;24037;49.536;8.500;2022-11-09T05:09:43;24.85;;;16.23;;
38240;SDS011;24037;49.536;8.500;2022-11-09T05:12:09;31.05;;;18.17;;
38240;SDS011;24037;49.536;8.500;2022-11-09T05:14:36;28.95;;;16.60;;
38240;SDS011;24037;49.536;8.500;2022-11-09T05:17:02;28.33;;;16.30;;
38240;SDS011;24037;49.536;8.500;2022-11-09T05:19:28;30.08;;;16.55;;
38240;SDS011;24037;49.536;8.500;2022-11-09T05:21:54;27.25;;;17.13;;
38240;SDS011;24037;49.536;8.500;2022-11-09T05:24:21;28.52;;;17.60;;
38240;SDS011;24037;49.536;8.500;2022-11-09T05:26:47;28.85;;;17.23;;
38240;SDS011;24037;49.536;8.500;2022-11-09T05:29:13;30.55;;;16.42;;
38240;SDS011;24037;49.536;8.500;2022-11-09T05:31:39;32.13;;;17.77;;
38240;SDS011;24037;49.536;8.500;2022-11-09T05:34:06;30.50;;;17.25;;
38240;SDS011;24037;49.536;8.500;2022-11-09T05:39:03;31.55;;;16.63;;
38240;SDS011;24037;49.536;8.500;2022-11-09T05:41:30;27.67;;;16.13;;
38240;SDS011;24037;49.536;8.500;2022-11-09T05:43:56;27.20;;;16.83;;
38240;SDS011;24037;49.536;8.500;2022-11-09T05:46:22;29.15;;;16.63;;
38240;SDS011;24037;49.536;8.500;2022-11-09T05:48:48;26.30;;;15.95;;
38240;SDS011;24037;49.536;8.500;2022-11-09T05:51:14;27.90;;;16.63;;
38240;SDS011;24037;49.536;8.500;2022-11-09T05:53:41;26.35;;;16.17;;
38240;SDS011;24037;49.536;8.500;2022-11-09T05:56:08;27.92;;;16.02;;
38240;SDS011;24037;49.536;8.500;2022-11-09T05:58:36;32.33;;;17.58;;
38240;SDS011;24037;49.536;8.500;2022-11-09T06:01:13;32.35;;;16.90;;
38240;SDS011;24037;49.536;8.500;2022-11-09T06:03:40;33.95;;;17.30;;
38240;SDS011;24037;49.536;8.500;2022-11-09T06:06:08;27.90;;;17.08;;
38240;SDS011;24037;49.536;8.500;2022-11-09T06:08:36;24.90;;;15.65;;
38240;SDS011;24037;49.536;8.500;2022-11-09T06:11:07;29.67;;;18.65;;
38240;SDS011;24037;49.536;8.500;2022-11-09T06:13:35;32.33;;;18.20;;
38240;SDS011;24037;49.536;8.500;2022-11-09T06:16:02;28.80;;;17.20;;
38240;SDS011;24037;49.536;8.500;2022-11-09T06:18:30;27.42;;;16.02;;
38240;SDS011;24037;49.536;8.500;2022-11-09T06:20:59;28.73;;;17.55;;
38240;SDS011;24037;49.536;8.500;2022-11-09T06:23:27;32.75;;;18.27;;
38240;SDS011;24037;49.536;8.500;2022-11-09T06:28:24;22.17;;;13.25;;
38240;SDS011;24037;49.536;8.500;2022-11-09T06:30:50;28.10;;;16.35;;
38240;SDS011;24037;49.536;8.500;2022-11-09T06:33:17;39.72;;;17.10;;
38240;SDS011;24037;49.536;8.500;2022-11-09T06:35:43;26.98;;;15.00;;
38240;SDS011;24037;49.536;8.500;2022-11-09T06:38:09;25.10;;;13.35;;
38240;SDS011;24037;49.536;8.500;2022-11-09T06:40:38;23.42;;;14.25;;
38240;SDS011;24037;49.536;8.500;2022-11-09T06:43:13;22.77;;;12.68;;
38240;SDS011;24037;49.536;8.500;2022-11-09T06:46:18;23.38;;;14.02;;
38240;SDS011;24037;49.536;8.500;2022-11-09T06:48:45;22.95;;;14.63;;
38240;SDS011;24037;49.536;8.500;2022-11-09T06:51:11;21.50;;;12.27;;
38240;SDS011;24037;49.536;8.500;2022-11-09T06:53:38;24.55;;;14.32;;
38240;SDS011;24037;49.536;8.500;2022-11-09T06:56:06;21.00;;;13.60;;
38240;SDS011;24037;49.536;8.500;2022-11-09T06:58:33;28.13;;;15.75;;
38240;SDS011;24037;49.536;8.500;2022-11-09T07:01:11;24.50;;;13.95;;
38240;SDS011;24037;49.536;8.500;2022-11-09T07:03:41;22.87;;;12.83;;
38240;SDS011;24037;49.536;8.500;2022-11-09T07:06:08;19.75;;;12.27;;
38240;SDS011;24037;49.536;8.500;2022-11-09T07:08:36;19.30;;;11.57;;
38240;SDS011;24037;49.536;8.500;2022-11-09T07:11:09;13.98;;;8.88;;
38240;SDS011;24037;49.536;8.500;2022-11-09T07:13:37;14.13;;;8.70;;
38240;SDS011;24037;49.536;8.500;2022-11-09T07:16:04;13.63;;;7.80;;
38240;SDS011;24037;49.536;8.500;2022-11-09T07:18:31;11.40;;;7.45;;
38240;SDS011;24037;49.536;8.500;2022-11-09T07:20:58;10.32;;;7.18;;
38240;SDS011;24037;49.536;8.500;2022-11-09T07:23:24;13.13;;;7.32;;
38240;SDS011;24037;49.536;8.500;2022-11-09T07:25:51;10.38;;;6.50;;
38240;SDS011;24037;49.536;8.500;2022-11-09T07:28:17;10.50;;;5.88;;
38240;SDS011;24037;49.536;8.500;2022-11-09T07:30:43;10.57;;;5.75;;
38240;SDS011;24037;49.536;8.500;2022-11-09T07:33:13;9.43;;;5.20;;
38240;SDS011;24037;49.536;8.500;2022-11-09T07:35:42;8.48;;;5.78;;
38240;SDS011;24037;49.536;8.500;2022-11-09T07:38:09;11.68;;;5.30;;
38240;SDS011;24037;49.536;8.500;2022-11-09T07:40:35;11.93;;;5.05;;
38240;SDS011;24037;49.536;8.500;2022-11-09T07:43:03;9.40;;;5.20;;
38240;SDS011;24037;49.536;8.500;2022-11-09T07:45:31;7.80;;;4.60;;
38240;SDS011;24037;49.536;8.500;2022-11-09T07:48:00;9.40;;;5.63;;
38240;SDS011;24037;49.536;8.500;2022-11-09T07:50:28;9.63;;;5.90;;
38240;SDS011;24037;49.536;8.500;2022-11-09T07:52:55;10.25;;;5.63;;
38240;SDS011;24037;49.536;8.500;2022-11-09T07:55:23;9.23;;;6.00;;
38240;SDS011;24037;49.536;8.500;2022-11-09T07:57:57;12.68;;;6.38;;
38240;SDS011;24037;49.536;8.500;2022-11-09T08:00:25;8.55;;;5.15;;
38240;SDS011;24037;49.536;8.500;2022-11-09T08:02:53;8.07;;;5.75;;
38240;SDS011;24037;49.536;8.500;2022-11-09T08:05:19;8.82;;;5.68;;
38240;SDS011;24037;49.536;8.500;2022-11-09T08:07:46;10.93;;;5.40;;
38240;SDS011;24037;49.536;8.500;2022-11-09T08:10:12;13.50;;;5.30;;
38240;SDS011;24037;49.536;8.500;2022-11-09T08:12:39;7.18;;;3.92;;
38240;SDS011;24037;49.536;8.500;2022-11-09T08:15:05;6.88;;;4.28;;
38240;SDS011;24037;49.536;8.500;2022-11-09T08:17:32;7.00;;;3.75;;
38240;SDS011;24037;49.536;8.500;2022-11-09T08:19:58;6.50;;;3.92;;
38240;SDS011;24037;49.536;8.500;2022-11-09T08:22:24;6.85;;;3.60;;
38240;SDS011;24037;49.536;8.500;2022-11-09T08:24:50;6.68;;;4.10;;
38240;SDS011;24037;49.536;8.500;2022-11-09T08:27:16;5.82;;;3.53;;
38240;SDS011;24037;49.536;8.500;2022-11-09T08:29:43;9.75;;;4.65;;
38240;SDS011;24037;49.536;8.500;2022-11-09T08:32:09;6.82;;;3.67;;
38240;SDS011;24037;49.536;8.500;2022-11-09T08:34:36;7.43;;;4.20;;
38240;SDS011;24037;49.536;8.500;2022-11-09T08:37:02;6.65;;;3.38;;
38240;SDS011;24037;49.536;8.500;2022-11-09T08:39:29;5.95;;;4.18;;
38240;SDS011;24037;49.536;8.500;2022-11-09T08:41:56;7.13;;;4.45;;
38240;SDS011;24037;49.536;8.500;2022-11-09T08:44:22;6.93;;;3.53;;
38240;SDS011;24037;49.536;8.500;2022-11-09T08:46:49;6.28;;;3.28;;
38240;SDS011;24037;49.536;8.500;2022-11-09T08:49:15;5.70;;;4.13;;
38240;SDS011;24037;49.536;8.500;2022-11-09T08:51:42;5.80;;;3.17;;
38240;SDS011;24037;49.536;8.500;2022-11-09T08:54:08;4.80;;;2.75;;
38240;SDS011;24037;49.536;8.500;2022-11-09T08:56:35;7.68;;;4.40;;
38240;SDS011;24037;49.536;8.500;2022-11-09T08:59:01;4.75;;;2.53;;
38240;SDS011;24037;49.536;8.500;2022-11-09T09:01:28;5.72;;;2.63;;
38240;SDS011;24037;49.536;8.500;2022-11-09T09:03:54;2.45;;;1.33;;
38240;SDS011;24037;49.536;8.500;2022-11-09T09:06:20;5.63;;;1.77;;
38240;SDS011;24037;49.536;8.500;2022-11-09T09:08:46;4.53;;;2.47;;
38240;SDS011;24037;49.536;8.500;2022-11-09T09:11:12;4.40;;;2.03;;
38240;SDS011;24037;49.536;8.500;2022-11-09T09:13:39;4.18;;;1.88;;
38240;SDS011;24037;49.536;8.500;2022-11-09T09:16:12;2.75;;;1.88;;
38240;SDS011;24037;49.536;8.500;2022-11-09T09:18:40;2.53;;;1.75;;
38240;SDS011;24037;49.536;8.500;2022-11-09T09:21:07;3.80;;;2.25;;
38240;SDS011;24037;49.536;8.500;2022-11-09T09:23:34;4.60;;;2.00;;
38240;SDS011;24037;49.536;8.500;2022-11-09T09:26:00;3.70;;;1.70;;
38240;SDS011;24037;49.536;8.500;2022-11-09T09:28:26;3.88;;;2.17;;
38240;SDS011;24037;49.536;8.500;2022-11-09T09:30:53;6.28;;;2.40;;
38240;SDS011;24037;49.536;8.500;2022-11-09T09:33:21;4.35;;;1.98;;
38240;SDS011;24037;49.536;8.500;2022-11-09T09:35:47;3.40;;;1.52;;
38240;SDS011;24037;49.536;8.500;2022-11-09T09:38:15;3.55;;;1.58;;
38240;SDS011;24037;49.536;8.500;2022-11-09T09:40:48;3.47;;;2.00;;
38240;SDS011;24037;49.536;8.500;2022-11-09T09:46:29;3.50;;;2.00;;
38240;SDS011;24037;49.536;8.500;2022-11-09T09:49:09;4.45;;;2.63;;
38240;SDS011;24037;49.536;8.500;2022-11-09T09:51:40;3.33;;;1.63;;
38240;SDS011;24037;49.536;8.500;2022-11-09T09:54:19;3.58;;;2.05;;
38240;SDS011;24037;49.536;8.500;2022-11-09T09:56:49;3.58;;;2.25;;
38240;SDS011;24037;49.536;8.500;2022-11-09T09:59:22;2.67;;;1.13;;
38240;SDS011;24037;49.536;8.500;2022-11-09T10:02:20;2.28;;;1.08;;
38240;SDS011;24037;49.536;8.500;2022-11-09T10:04:50;2.00;;;1.00;;
38240;SDS011;24037;49.536;8.500;2022-11-09T10:12:54;3.00;;;1.42;;
38240;SDS011;24037;49.536;8.500;2022-11-09T10:26:22;2.50;;;1.33;;
38240;SDS011;24037;49.536;8.500;2022-11-09T10:29:01;4.70;;;1.20;;
38240;SDS011;24037;49.536;8.500;2022-11-09T10:31:37;4.03;;;1.80;;
38240;SDS011;24037;49.536;8.500;2022-11-09T10:34:15;2.33;;;1.40;;
38240;SDS011;24037;49.536;8.500;2022-11-09T10:36:44;3.58;;;2.42;;
38240;SDS011;24037;49.536;8.500;2022-11-09T10:39:17;2.72;;;1.65;;
38240;SDS011;24037;49.536;8.500;2022-11-09T10:42:04;4.65;;;2.50;;
38240;SDS011;24037;49.536;8.500;2022-11-09T10:44:49;1.83;;;0.77;;
38240;SDS011;24037;49.536;8.500;2022-11-09T10:47:45;3.90;;;1.77;;
38240;SDS011;24037;49.536;8.500;2022-11-09T10:50:33;3.10;;;1.30;;
38240;SDS011;24037;49.536;8.500;2022-11-09T10:53:22;4.22;;;1.58;;
38240;SDS011;24037;49.536;8.500;2022-11-09T10:56:15;3.80;;;1.00;;
38240;SDS011;24037;49.536;8.500;2022-11-09T10:59:01;2.33;;;1.30;;
38240;SDS011;24037;49.536;8.500;2022-11-09T11:01:46;1.80;;;1.08;;
38240;SDS011;24037;49.536;8.500;2022-11-09T11:04:30;3.08;;;1.40;;
38240;SDS011;24037;49.536;8.500;2022-11-09T11:07:19;3.45;;;1.73;;
38240;SDS011;24037;49.536;8.500;2022-11-09T11:15:42;5.53;;;1.17;;
38240;SDS011;24037;49.536;8.500;2022-11-09T11:18:28;3.20;;;1.30;;
38240;SDS011;24037;49.536;8.500;2022-11-09T11:21:18;3.13;;;1.00;;
38240;SDS011;24037;49.536;8.500;2022-11-09T11:24:11;2.42;;;0.80;;
38240;SDS011;24037;49.536;8.500;2022-11-09T11:26:58;2.63;;;0.90;;
38240;SDS011;24037;49.536;8.500;2022-11-09T11:32:35;2.63;;;0.90;;
38240;SDS011;24037;49.536;8.500;2022-11-09T11:35:36;5.50;;;1.83;;
38240;SDS011;24037;49.536;8.500;2022-11-09T11:41:44;2.85;;;1.58;;
38240;SDS011;24037;49.536;8.500;2022-11-09T11:45:01;3.55;;;0.82;;
38240;SDS011;24037;49.536;8.500;2022-11-09T11:47:54;2.67;;;0.90;;
38240;SDS011;24037;49.536;8.500;2022-11-09T11:54:37;2.28;;;1.30;;
38240;SDS011;24037;49.536;8.500;2022-11-09T12:00:17;3.10;;;1.42;;
38240;SDS011;24037;49.536;8.500;2022-11-09T12:03:14;5.47;;;1.65;;
38240;SDS011;24037;49.536;8.500;2022-11-09T12:12:10;4.53;;;1.08;;
38240;SDS011;24037;49.536;8.500;2022-11-09T12:32:57;4.28;;;1.48;;
38240;SDS011;24037;49.536;8.500;2022-11-09T12:36:19;5.30;;;1.23;;
38240;SDS011;24037;49.536;8.500;2022-11-09T12:42:19;6.00;;;1.13;;
38240;SDS011;24037;49.536;8.500;2022-11-09T12:45:16;2.45;;;1.17;;
38240;SDS011;24037;49.536;8.500;2022-11-09T12:48:18;3.40;;;1.05;;
38240;SDS011;24037;49.536;8.500;2022-11-09T12:51:06;4.70;;;0.93;;
38240;SDS011;24037;49.536;8.500;2022-11-09T12:53:51;3.72;;;1.20;;
38240;SDS011;24037;49.536;8.500;2022-11-09T12:56:47;3.08;;;1.25;;
38240;SDS011;24037;49.536;8.500;2022-11-09T12:59:49;1.88;;;0.68;;
38240;SDS011;24037;49.536;8.500;2022-11-09T13:02:49;2.58;;;1.00;;
38240;SDS011;24037;49.536;8.500;2022-11-09T13:05:37;5.22;;;1.60;;
38240;SDS011;24037;49.536;8.500;2022-11-09T13:08:23;2.88;;;1.27;;
38240;SDS011;24037;49.536;8.500;2022-11-09T13:11:24;4.80;;;1.45;;
38240;SDS011;24037;49.536;8.500;2022-11-09T13:29:28;2.28;;;1.10;;
38240;SDS011;24037;49.536;8.500;2022-11-09T13:32:31;2.00;;;1.02;;
38240;SDS011;24037;49.536;8.500;2022-11-09T13:38:42;3.45;;;0.80;;
38240;SDS011;24037;49.536;8.500;2022-11-09T13:44:16;6.68;;;1.55;;
38240;SDS011;24037;49.536;8.500;2022-11-09T13:47:04;4.35;;;1.45;;
38240;SDS011;24037;49.536;8.500;2022-11-09T13:49:48;3.85;;;1.10;;
38240;SDS011;24037;49.536;8.500;2022-11-09T13:52:48;3.25;;;1.40;;
38240;SDS011;24037;49.536;8.500;2022-11-09T13:55:38;3.20;;;1.17;;
38240;SDS011;24037;49.536;8.500;2022-11-09T14:01:24;3.30;;;0.82;;
38240;SDS011;24037;49.536;8.500;2022-11-09T14:07:25;2.92;;;1.13;;
38240;SDS011;24037;49.536;8.500;2022-11-09T14:16:30;4.55;;;2.15;;
38240;SDS011;24037;49.536;8.500;2022-11-09T14:19:23;8.85;;;2.72;;
38240;SDS011;24037;49.536;8.500;2022-11-09T14:22:14;3.05;;;1.30;;
38240;SDS011;24037;49.536;8.500;2022-11-09T14:25:03;4.32;;;2.03;;
38240;SDS011;24037;49.536;8.500;2022-11-09T14:27:55;4.47;;;1.30;;
38240;SDS011;24037;49.536;8.500;2022-11-09T14:30:42;3.10;;;1.52;;
38240;SDS011;24037;49.536;8.500;2022-11-09T14:33:29;4.40;;;1.50;;
38240;SDS011;24037;49.536;8.500;2022-11-09T14:36:17;5.15;;;2.33;;
38240;SDS011;24037;49.536;8.500;2022-11-09T14:39:03;5.40;;;1.88;;
38240;SDS011;24037;49.536;8.500;2022-11-09T14:41:50;3.33;;;1.58;;
38240;SDS011;24037;49.536;8.500;2022-11-09T14:44:36;5.30;;;1.80;;
38240;SDS011;24037;49.536;8.500;2022-11-09T14:47:27;5.47;;;1.75;;
38240;SDS011;24037;49.536;8.500;2022-11-09T14:53:13;7.28;;;1.58;;
38240;SDS011;24037;49.536;8.500;2022-11-09T14:56:18;2.23;;;1.27;;
38240;SDS011;24037;49.536;8.500;2022-11-09T14:59:11;4.45;;;1.83;;
38240;SDS011;24037;49.536;8.500;2022-11-09T15:02:04;3.85;;;1.33;;
38240;SDS011;24037;49.536;8.500;2022-11-09T15:07:39;22.17;;;10.60;;
38240;SDS011;24037;49.536;8.500;2022-11-09T15:10:29;20.15;;;7.95;;
38240;SDS011;24037;49.536;8.500;2022-11-09T15:13:15;31.98;;;15.20;;
38240;SDS011;24037;49.536;8.500;2022-11-09T15:16:01;33.47;;;17.95;;
38240;SDS011;24037;49.536;8.500;2022-11-09T15:18:47;26.75;;;14.73;;
38240;SDS011;24037;49.536;8.500;2022-11-09T15:21:34;28.85;;;16.05;;
38240;SDS011;24037;49.536;8.500;2022-11-09T15:24:21;8.77;;;3.95;;
38240;SDS011;24037;49.536;8.500;2022-11-09T15:30:29;19.35;;;10.52;;
38240;SDS011;24037;49.536;8.500;2022-11-09T15:33:27;16.45;;;7.82;;
38240;SDS011;24037;49.536;8.500;2022-11-09T15:36:35;73.35;;;43.00;;
38240;SDS011;24037;49.536;8.500;2022-11-09T15:39:21;36.65;;;20.90;;
38240;SDS011;24037;49.536;8.500;2022-11-09T15:42:08;44.70;;;25.35;;
38240;SDS011;24037;49.536;8.500;2022-11-09T15:44:56;31.25;;;18.35;;
38240;SDS011;24037;49.536;8.500;2022-11-09T15:47:47;24.65;;;12.85;;
38240;SDS011;24037;49.536;8.500;2022-11-09T15:50:39;8.57;;;5.05;;
38240;SDS011;24037;49.536;8.500;2022-11-09T15:53:24;13.30;;;8.80;;
38240;SDS011;24037;49.536;8.500;2022-11-09T15:56:14;17.65;;;10.68;;
38240;SDS011;24037;49.536;8.500;2022-11-09T15:59:04;11.70;;;7.30;;
38240;SDS011;24037;49.536;8.500;2022-11-09T16:01:50;37.65;;;19.52;;
38240;SDS011;24037;49.536;8.500;2022-11-09T16:04:35;13.70;;;7.30;;
38240;SDS011;24037;49.536;8.500;2022-11-09T16:07:19;11.27;;;7.28;;
38240;SDS011;24037;49.536;8.500;2022-11-09T16:10:04;7.80;;;5.80;;
38240;SDS011;24037;49.536;8.500;2022-11-09T16:12:49;15.82;;;8.45;;
38240;SDS011;24037;49.536;8.500;2022-11-09T16:15:36;17.58;;;11.32;;
38240;SDS011;24037;49.536;8.500;2022-11-09T16:18:21;37.05;;;23.20;;
38240;SDS011;24037;49.536;8.500;2022-11-09T16:21:10;27.17;;;18.08;;
38240;SDS011;24037;49.536;8.500;2022-11-09T16:23:57;25.50;;;17.17;;
38240;SDS011;24037;49.536;8.500;2022-11-09T16:26:41;15.00;;;8.52;;
38240;SDS011;24037;49.536;8.500;2022-11-09T16:29:27;9.02;;;6.80;;
38240;SDS011;24037;49.536;8.500;2022-11-09T16:32:12;9.27;;;3.75;;
38240;SDS011;24037;49.536;8.500;2022-11-09T16:34:57;15.60;;;6.55;;
38240;SDS011;24037;49.536;8.500;2022-11-09T16:37:41;8.48;;;4.70;;
38240;SDS011;24037;49.536;8.500;2022-11-09T16:40:26;14.18;;;8.40;;
38240;SDS011;24037;49.536;8.500;2022-11-09T16:43:12;13.02;;;5.75;;
38240;SDS011;24037;49.536;8.500;2022-11-09T16:45:56;10.55;;;5.70;;
38240;SDS011;24037;49.536;8.500;2022-11-09T16:48:41;10.07;;;6.00;;
38240;SDS011;24037;49.536;8.500;2022-11-09T16:51:26;11.35;;;6.45;;
38240;SDS011;24037;49.536;8.500;2022-11-09T16:54:11;12.73;;;6.57;;
38240;SDS011;24037;49.536;8.500;2022-11-09T16:56:55;22.45;;;14.52;;
38240;SDS011;24037;49.536;8.500;2022-11-09T16:59:40;15.73;;;9.43;;
38240;SDS011;24037;49.536;8.500;2022-11-09T17:02:25;18.73;;;10.30;;
38240;SDS011;24037;49.536;8.500;2022-11-09T17:05:10;17.42;;;11.00;;
38240;SDS011;24037;49.536;8.500;2022-11-09T17:07:55;31.05;;;21.05;;
38240;SDS011;24037;49.536;8.500;2022-11-09T17:10:41;16.73;;;11.20;;
38240;SDS011;24037;49.536;8.500;2022-11-09T17:13:29;6.90;;;4.10;;
38240;SDS011;24037;49.536;8.500;2022-11-09T17:16:14;12.70;;;7.80;;
38240;SDS011;24037;49.536;8.500;2022-11-09T17:19:03;11.80;;;8.50;;